createdAt,value
2023-03-23T15:57:58.866Z,12.97
2023-03-23T16:00:28.526Z,15.10
2023-03-23T16:03:03.227Z,12.83
2023-03-23T16:05:30.543Z,13.95
2023-03-23T16:07:58.108Z,10.53
2023-03-23T16:10:26.946Z,11.60
2023-03-23T16:12:54.112Z,9.07
2023-03-23T16:15:21.405Z,10.48
2023-03-23T16:17:48.742Z,13.52
2023-03-23T16:20:19.624Z,11.20
2023-03-23T16:22:47.953Z,10.88
2023-03-23T16:25:15.977Z,11.40
2023-03-23T16:27:44.076Z,13.23
2023-03-23T16:30:19.160Z,16.00
2023-03-23T16:32:47.119Z,11.98
2023-03-23T16:35:15.691Z,12.52
2023-03-23T16:37:52.122Z,11.77
2023-03-23T16:40:36.930Z,11.20
2023-03-23T16:43:08.993Z,14.02
2023-03-23T16:45:38.620Z,14.05
2023-03-23T16:48:07.894Z,11.45
2023-03-23T16:50:36.615Z,18.25
2023-03-23T16:53:05.848Z,14.52
2023-03-23T16:55:33.338Z,19.95
2023-03-23T16:58:15.345Z,15.87
2023-03-23T17:00:49.057Z,18.10
2023-03-23T17:03:18.454Z,16.33
2023-03-23T17:05:48.180Z,10.23
2023-03-23T17:08:16.192Z,19.27
2023-03-23T17:10:44.065Z,15.68
2023-03-23T17:13:11.332Z,12.25
2023-03-23T17:15:42.121Z,14.88
2023-03-23T17:18:10.379Z,14.07
2023-03-23T17:20:37.617Z,20.10
2023-03-23T17:23:05.503Z,14.00
2023-03-23T17:25:33.068Z,14.85
2023-03-23T17:28:05.456Z,18.53
2023-03-23T17:30:35.384Z,19.17
2023-03-23T17:33:02.881Z,18.45
2023-03-23T17:35:30.048Z,14.80
2023-03-23T17:37:57.078Z,13.88
2023-03-23T17:40:24.134Z,19.97
2023-03-23T17:42:51.147Z,18.50
2023-03-23T17:45:18.371Z,14.93
2023-03-23T17:47:45.446Z,12.88
2023-03-23T17:50:13.464Z,11.83
2023-03-23T17:52:41.646Z,18.80
2023-03-23T17:55:08.830Z,19.52
2023-03-23T17:57:36.326Z,14.80
2023-03-23T18:00:07.896Z,17.03
2023-03-23T18:02:36.830Z,17.13
2023-03-23T18:05:04.431Z,16.73
2023-03-23T18:07:31.474Z,17.70
2023-03-23T18:10:00.926Z,20.17
2023-03-23T18:12:28.189Z,20.20
2023-03-23T18:14:59.004Z,20.60
2023-03-23T18:17:26.861Z,20.90
2023-03-23T18:19:54.445Z,15.50
2023-03-23T18:22:21.949Z,20.93
2023-03-23T18:24:49.250Z,17.00
2023-03-23T18:27:17.315Z,22.37
2023-03-23T18:29:44.351Z,16.97
2023-03-23T18:32:11.370Z,19.17
2023-03-23T18:34:41.944Z,15.63
2023-03-23T18:37:09.279Z,17.63
2023-03-23T18:39:38.020Z,22.10
2023-03-23T18:42:06.226Z,16.20
2023-03-23T18:44:33.546Z,16.73
2023-03-23T18:47:00.856Z,13.53
2023-03-23T18:49:29.023Z,19.30
2023-03-23T18:51:56.287Z,18.97
2023-03-23T18:54:23.245Z,17.90
2023-03-23T18:56:50.307Z,15.30
2023-03-23T18:59:17.412Z,14.93
2023-03-23T19:01:44.419Z,16.57
2023-03-23T19:04:14.570Z,11.23
2023-03-23T19:06:41.572Z,11.53
2023-03-23T19:09:09.030Z,12.70
2023-03-23T19:11:36.137Z,13.40
2023-03-23T19:14:03.748Z,12.27
2023-03-23T19:16:38.251Z,10.93
2023-03-23T19:19:08.287Z,13.53
2023-03-23T19:21:37.610Z,13.83
2023-03-23T19:24:06.530Z,11.40
2023-03-23T19:26:40.400Z,16.73
2023-03-23T19:31:46.172Z,14.33
2023-03-23T19:34:15.509Z,15.73
2023-03-23T19:36:48.184Z,13.20
2023-03-23T19:39:22.057Z,14.30
2023-03-23T19:41:50.927Z,14.87
2023-03-23T19:44:18.348Z,12.27
2023-03-23T19:46:45.652Z,10.63
2023-03-23T19:49:12.870Z,15.47
2023-03-23T19:51:41.100Z,6.73
2023-03-23T19:54:08.902Z,9.50
2023-03-23T19:56:36.233Z,12.07
2023-03-23T19:59:03.632Z,12.00
2023-03-23T20:01:31.503Z,11.17
2023-03-23T20:04:00.327Z,12.27
2023-03-23T20:06:29.312Z,10.10
2023-03-23T20:09:00.201Z,9.37
2023-03-23T20:11:28.962Z,10.87
2023-03-23T20:13:56.776Z,7.80
2023-03-23T20:16:25.335Z,11.90
2023-03-23T20:18:53.512Z,7.43
2023-03-23T20:21:23.046Z,11.43
2023-03-23T20:23:53.038Z,10.30
2023-03-23T20:26:38.894Z,10.87
2023-03-23T20:29:07.974Z,16.63
2023-03-23T20:31:38.716Z,11.00
2023-03-23T20:34:11.451Z,12.20
2023-03-23T20:36:42.952Z,9.83
2023-03-23T20:39:21.574Z,9.80
2023-03-23T20:41:54.561Z,13.10
2023-03-23T20:44:25.202Z,8.83
2023-03-23T20:46:53.700Z,14.50
2023-03-23T20:49:22.053Z,11.93
2023-03-23T20:51:50.718Z,13.37
2023-03-23T20:54:19.694Z,10.93
2023-03-23T20:56:48.140Z,11.37
2023-03-23T20:59:16.534Z,12.80
2023-03-23T21:01:44.834Z,10.57
2023-03-23T21:04:18.746Z,12.17
2023-03-23T21:06:49.066Z,13.27
2023-03-23T21:09:17.970Z,11.23
2023-03-23T21:11:46.371Z,9.70
2023-03-23T21:14:14.019Z,9.07
2023-03-23T21:16:41.888Z,11.20
2023-03-23T21:19:09.836Z,13.67
2023-03-23T21:21:37.268Z,10.87
2023-03-23T21:24:04.512Z,13.57
2023-03-23T21:26:31.552Z,7.43
2023-03-23T21:29:01.648Z,7.63
2023-03-23T21:31:30.663Z,12.00
2023-03-23T21:34:01.441Z,7.87
2023-03-23T21:36:29.232Z,9.87
2023-03-23T21:38:57.186Z,8.23
2023-03-23T21:41:24.839Z,12.73
2023-03-23T21:43:52.141Z,10.73
2023-03-23T21:46:19.581Z,8.53
2023-03-23T21:48:51.640Z,7.87
2023-03-23T21:51:29.867Z,10.27
2023-03-23T21:53:57.946Z,10.70
2023-03-23T21:56:29.948Z,7.87
2023-03-23T21:58:57.486Z,12.20
2023-03-23T22:01:24.925Z,9.60
2023-03-23T22:03:52.041Z,9.03
2023-03-23T22:06:24.953Z,6.47
2023-03-23T22:08:53.005Z,11.93
2023-03-23T22:11:28.610Z,10.13
2023-03-23T22:13:58.566Z,12.27
2023-03-23T22:16:26.646Z,10.43
2023-03-23T22:18:55.470Z,8.13
2023-03-23T22:21:27.661Z,10.77
2023-03-23T22:23:58.879Z,12.37
2023-03-23T22:26:27.745Z,10.87
2023-03-23T22:28:55.894Z,8.30
2023-03-23T22:31:27.495Z,7.30
2023-03-23T22:33:56.613Z,5.17
2023-03-23T22:36:25.924Z,7.80
2023-03-23T22:38:55.032Z,11.87
2023-03-23T22:41:32.916Z,7.43
2023-03-23T22:44:00.234Z,11.47
2023-03-23T22:46:27.588Z,8.90
2023-03-23T22:48:54.860Z,9.63
2023-03-23T22:51:22.828Z,4.93
2023-03-23T22:53:51.252Z,8.30
2023-03-23T22:56:19.113Z,8.97
2023-03-23T22:58:46.466Z,10.63
2023-03-23T23:01:20.673Z,6.50
2023-03-23T23:03:48.704Z,8.90
2023-03-23T23:06:17.770Z,8.17
2023-03-23T23:08:46.222Z,12.13
2023-03-23T23:11:16.348Z,5.93
2023-03-23T23:13:43.931Z,6.77
2023-03-23T23:16:14.147Z,8.67
2023-03-23T23:18:41.844Z,5.57
2023-03-23T23:21:14.155Z,6.97
2023-03-23T23:23:41.547Z,6.33
2023-03-23T23:26:09.451Z,7.03
2023-03-23T23:28:36.920Z,4.97
2023-03-23T23:31:06.410Z,5.40
2023-03-23T23:33:33.642Z,4.57
2023-03-23T23:36:01.654Z,7.07
2023-03-23T23:38:28.828Z,4.90
2023-03-23T23:40:55.846Z,7.80
2023-03-23T23:43:22.894Z,4.20
2023-03-23T23:45:49.974Z,6.27
2023-03-23T23:48:17.331Z,4.83
2023-03-23T23:50:44.603Z,8.20
2023-03-23T23:53:12.993Z,4.07
2023-03-23T23:55:40.526Z,5.80
2023-03-23T23:58:07.762Z,5.83
